• Join FlightAware (Why Join?)
  • Login
  • US Flag 
02:59AM EST


 

Airport Tracker/Info


-or-


 

Live Flight TrackerFlight Track Log ✈ ASQ6127 ✈ 06-Jun-2013 ✈ KIAH - KPIT

Flight Track Log - Related Links

Times and Time Zones

All times are in EDT time to prevent confusion due to time zone crossing. See the ASQ6127 flight status page for this flight to view local times or setup timezone preferences in your user account.

Time Position Orientation Groundspeed Altitude Reporting Facility
EDT Latitude Longitude Course Direction KTS MPH feet Rate Location/Type
12:25PM 29.9525 -95.3350 90° East 200 230 800  Level Houston Center
12:26PM 29.9067 -95.2706 129° Southeast 240 276 2,500 1,620 Climbing Houston Center
12:27PM 29.8650 -95.2106 129° Southeast 247 284 4,600 2,040 Climbing Houston Center
12:28PM 29.9834 -94.7759 90° East  Level FlightAware Approximate
12:28PM 29.8278 -95.1361 120° Southeast 278 320 6,900  Level Houston Center
12:29PM 29.9833 -94.6365 90° East  Level FlightAware Approximate
12:29PM 29.8456 -95.0464 77° East 284 327 9,000  Level Houston Center
12:30PM 29.9834 -94.4971 90° East  Level FlightAware Approximate
12:30PM 29.8661 -94.9547 75° East 292 336 10,800  Level Houston Center
12:31PM 29.9053 -94.8342 69° East 331 381 11,700 1,080 Climbing Houston Center
12:32PM 29.9250 -94.7181 79° East 361 415 13,100 1,320 Climbing Houston Center
12:33PM 29.9456 -94.5994 79° East 373 429 14,500 1,260 Climbing Houston Center
12:34PM 29.9658 -94.4769 79° East 383 441 15,800 1,140 Climbing Houston Center
12:35PM 29.9903 -94.3361 79° East 394 453 16,900 960 Climbing Houston Center
12:36PM 30.0078 -94.2056 81° East 409 471 17,900 1,260 Climbing Houston Center
12:37PM 30.0253 -94.0747 81° East 415 478 19,600 1,560 Climbing Houston Center
12:38PM 30.0408 -93.9458 82° East 408 470 21,200 1,440 Climbing Houston Center
12:39PM 30.0561 -93.8200 82° East 399 459 22,600 1,680 Climbing Houston Center
12:40PM 30.0742 -93.6694 82° East 397 457 24,700 1,560 Climbing Houston Center
12:41PM 30.0881 -93.5525 82° East 375 432 25,900 1,140 Climbing Houston Center
12:42PM 30.1022 -93.4331 82° East 379 436 27,100 1,200 Climbing Houston Center
12:43PM 30.1153 -93.3136 83° East 380 437 28,400 1,320 Climbing Houston Center
12:44PM 30.1319 -93.1719 82° East 374 430 29,900 1,320 Climbing Houston Center
12:45PM 30.1622 -93.0639 72° East 364 419 31,200 1,140 Climbing Houston Center
12:46PM 30.2144 -92.9700 57° Northeast 352 405 32,300 840 Climbing Houston Center
12:48PM 30.2667 -92.8739 58° Northeast 353 406 33,000 660 Climbing Houston Center
12:49PM 30.3200 -92.7772 57° Northeast 358 412 33,700 720 Climbing Houston Center
12:50PM 30.3833 -92.6600 58° Northeast 361 415 34,500 600 Climbing Houston Center
12:51PM 30.4375 -92.5603 58° Northeast 366 421 35,000 240 Climbing Houston Center
12:52PM 30.4953 -92.4533 58° Northeast 381 438 35,000  Level Houston Center
12:53PM 30.5547 -92.3428 58° Northeast 402 463 35,000 360 Level Houston Center
12:54PM 30.6164 -92.2289 58° Northeast 416 479 35,800 840 Climbing Houston Center
12:55PM 30.6764 -92.1169 58° Northeast 412 474 36,800 540 Climbing Houston Center
12:56PM 30.7475 -91.9861 58° Northeast 405 466 37,000 60 Climbing Houston Center
12:57PM 30.7906 -91.8636 68° East 415 478 37,000  Level Houston Center
12:58PM 30.8194 -91.7306 76° East 423 487 37,000  Level Houston Center
12:59PM 30.8542 -91.5953 73° East 433 498 37,000  Level Houston Center
01:00PM 30.8953 -91.4592 71° East 443 510 37,000  Level Houston Center
01:01PM 30.9464 -91.2939 70° East 452 520 37,000  Level Houston Center
01:02PM 31.0150 -91.1697 57° Northeast 462 532 37,000  Level Houston Center
01:03PM 31.0869 -91.0475 55° Northeast 460 529 37,000  Level Houston Center
01:04PM 31.1592 -90.9247 55° Northeast 458 527 37,000  Level Houston Center
01:05PM 31.2333 -90.8011 55° Northeast 461 531 37,000  Level Houston Center
01:06PM 31.3181 -90.6536 56° Northeast 457 526 37,000  Level Houston Center
01:07PM 31.3908 -90.5317 55° Northeast 456 525 37,000  Level Houston Center
01:08PM 31.4619 -90.4089 56° Northeast 455 524 37,000  Level Houston Center
01:09PM 31.5339 -90.2872 55° Northeast 453 521 37,000  Level Houston Center
01:10PM 31.6056 -90.1672 55° Northeast 449 517 37,000  Level Houston Center
01:11PM 31.6875 -90.0556 49° Northeast 451 519 37,000  Level Houston Center
01:12PM 31.7869 -89.9233 48° Northeast 450 518 37,000  Level Houston Center
01:13PM 31.8586 -89.8253 49° Northeast 449 517 37,000  Level Houston Center
01:14PM 31.9583 -89.6914 49° Northeast 444 511 37,000  Level Memphis Center
01:15PM 32.0389 -89.5781 50° Northeast 444 511 37,000  Level Memphis Center
01:16PM 32.1239 -89.4669 48° Northeast 444 511 37,000  Level Memphis Center
01:17PM 32.2064 -89.3506 50° Northeast 449 517 37,000  Level Memphis Center
01:18PM 32.2911 -89.2342 49° Northeast 455 524 37,000  Level Memphis Center
01:19PM 32.3756 -89.1175 49° Northeast 460 529 37,000  Level Memphis Center
01:20PM 32.4600 -89.0031 49° Northeast 460 529 37,000  Level Memphis Center
01:21PM 32.5442 -88.8861 49° Northeast 460 529 37,000  Level Memphis Center
01:22PM 32.6264 -88.7711 50° Northeast 460 529 37,000  Level Memphis Center
01:23PM 32.7042 -88.6661 49° Northeast 466 536 37,000  Level Memphis Center
01:24PM 32.7903 -88.5483 49° Northeast 466 536 37,000  Level Memphis Center
01:25PM 32.8739 -88.4278 50° Northeast 466 536 37,000  Level Memphis Center
01:26PM 32.9597 -88.3097 49° Northeast 466 536 37,000  Level Memphis Center
01:28PM 33.0967 -88.1078 51° Northeast 483 556 37,000  Level Atlanta Center
01:29PM 33.1819 -87.9900 49° Northeast 483 556 37,000  Level Atlanta Center
01:30PM 33.2672 -87.8672 50° Northeast 483 556 37,000  Level Atlanta Center
01:31PM 33.3503 -87.7467 50° Northeast 478 550 37,000  Level Atlanta Center
01:32PM 33.4372 -87.6258 49° Northeast 478 550 37,000  Level Atlanta Center
01:33PM 33.5222 -87.5022 50° Northeast 478 550 37,000  Level Atlanta Center
01:34PM 33.6050 -87.3808 51° Northeast 478 550 37,000  Level Atlanta Center
01:35PM 33.6894 -87.2594 50° Northeast 478 550 37,000  Level Atlanta Center
01:36PM 33.7742 -87.1350 51° Northeast 478 550 37,000  Level Atlanta Center
01:37PM 33.8564 -87.0131 51° Northeast 478 550 37,000  Level Atlanta Center
01:38PM 33.9408 -86.8908 50° Northeast 478 550 37,000  Level Atlanta Center
01:39PM 34.0250 -86.7683 50° Northeast 478 550 37,000  Level Atlanta Center
01:40PM 34.1089 -86.6431 51° Northeast 478 550 37,000  Level Atlanta Center
01:41PM 34.1950 -86.5175 50° Northeast 478 550 37,000  Level Atlanta Center
01:42PM 34.2789 -86.3944 50° Northeast 478 550 37,000  Level Atlanta Center
01:43PM 34.3647 -86.2658 51° Northeast 485 558 37,000  Level Atlanta Center
01:44PM 34.4525 -86.1372 50° Northeast 485 558 37,000  Level Atlanta Center
01:45PM 34.5361 -86.0106 51° Northeast 485 558 37,000  Level Atlanta Center
01:46PM 34.6236 -85.8814 51° Northeast 485 558 37,000  Level Atlanta Center
01:47PM 34.7047 -85.7594 51° Northeast 479 551 37,000  Level Atlanta Center
01:48PM 34.7900 -85.6297 51° Northeast 485 558 37,000  Level Atlanta Center
01:49PM 34.8811 -85.5047 48° Northeast 485 558 37,000  Level Atlanta Center
01:50PM 34.9806 -85.3900 43° Northeast 485 558 37,000  Level Atlanta Center
01:51PM 35.0800 -85.2722 44° Northeast 485 558 37,000  Level Atlanta Center
01:52PM 35.1811 -85.1569 43° Northeast 485 558 37,000  Level Atlanta Center
01:53PM 35.2803 -85.0411 44° Northeast 485 558 37,000  Level Atlanta Center
01:54PM 35.3814 -84.9228 44° Northeast 490 564 37,000  Level Atlanta Center
01:55PM 35.4803 -84.8064 44° Northeast 490 564 37,000  Level Atlanta Center
01:56PM 35.5811 -84.6872 44° Northeast 490 564 37,000  Level Atlanta Center
01:57PM 35.6839 -84.5681 43° Northeast 490 564 37,000  Level Atlanta Center
01:58PM 35.7822 -84.4508 44° Northeast 490 564 37,000  Level Atlanta Center
01:59PM 35.8828 -84.3361 43° Northeast 490 564 37,000  Level Atlanta Center
02:00PM 35.9811 -84.2183 44° Northeast 490 564 37,000  Level Atlanta Center
02:01PM 36.0792 -84.1003 44° Northeast 485 558 37,000  Level Atlanta Center
02:02PM 36.1750 -83.9872 44° Northeast 485 558 37,000  Level Atlanta Center
02:02PM 36.2086 -83.9439 46° Northeast 483 556 37,000  Level Indianapolis Center
02:03PM 36.3047 -83.8281 44° Northeast 483 556 37,000  Level Indianapolis Center
02:04PM 36.4011 -83.7117 44° Northeast 484 557 37,000  Level Indianapolis Center
02:06PM 36.4972 -83.5953 44° Northeast 482 555 37,000  Level Indianapolis Center
02:07PM 36.6056 -83.4675 43° Northeast 485 558 37,000  Level Indianapolis Center
02:08PM 36.7164 -83.3789 33° Northeast 469 540 37,000  Level Indianapolis Center
02:09PM 36.8342 -83.3033 27° Northeast 473 544 37,000  Level Indianapolis Center
02:10PM 36.9519 -83.2275 27° Northeast 471 542 37,000  Level Indianapolis Center
02:11PM 37.0703 -83.1514 27° Northeast 471 542 37,000  Level Indianapolis Center
02:12PM 37.2081 -83.0622 27° Northeast 472 543 37,000  Level Indianapolis Center
02:13PM 37.3247 -82.9839 28° Northeast 472 543 37,000  Level Indianapolis Center
02:14PM 37.4414 -82.9081 27° Northeast 471 542 37,000  Level Indianapolis Center
02:15PM 37.5578 -82.8297 28° Northeast 473 544 37,000  Level Indianapolis Center
02:16PM 37.6750 -82.7531 27° Northeast 474 545 37,000  Level Indianapolis Center
02:17PM 37.7908 -82.6756 28° Northeast 471 542 37,000  Level Indianapolis Center
02:18PM 37.9081 -82.5967 28° Northeast 474 545 37,000  Level Indianapolis Center
02:19PM 38.0244 -82.5189 28° Northeast 472 543 37,000 -420 Level Indianapolis Center
02:20PM 38.1561 -82.4306 28° Northeast 473 544 36,200 -900 Descending Indianapolis Center
02:21PM 38.2706 -82.3525 28° Northeast 469 540 35,200 -960 Descending Indianapolis Center
02:22PM 38.3872 -82.2731 28° Northeast 471 542 34,300 -900 Descending Indianapolis Center
02:23PM 38.5092 -82.1914 28° Northeast 487 560 33,400 -960 Descending Indianapolis Center
02:24PM 38.6386 -82.1056 27° Northeast 512 589 32,400 -1,020 Descending Indianapolis Center
02:25PM 38.7683 -82.0133 29° Northeast 523 602 31,400 -1,020 Descending Indianapolis Center
02:26PM 38.8853 -81.9022 36° Northeast 517 595 30,400 -1,200 Descending Indianapolis Center
02:27PM 39.0033 -81.7925 36° Northeast 516 594 29,000 -1,500 Descending Indianapolis Center
02:28PM 39.1206 -81.6797 37° Northeast 520 598 27,400 -1,860 Descending Indianapolis Center
02:29PM 39.2617 -81.5453 36° Northeast 523 602 25,200 -2,100 Descending Indianapolis Center
02:30PM 39.3742 -81.4386 36° Northeast 504 580 23,100 -1,740 Descending Indianapolis Center
02:31PM 39.4769 -81.3400 37° Northeast 464 534 21,700 -1,080 Descending Indianapolis Center
02:32PM 39.5681 -81.2508 37° Northeast 417 480 20,900 -1,620 Descending Indianapolis Center
02:33PM 39.6622 -81.1622 36° Northeast 415 478 18,400 -2,400 Descending Indianapolis Center
02:34PM 39.7533 -81.0725 37° Northeast 411 473 16,000 -1,980 Descending Indianapolis Center
02:35PM 39.8397 -80.9900 36° Northeast 386 444 14,400 -1,680 Descending Indianapolis Center
02:36PM 39.9403 -80.8897 37° Northeast 378 435 12,600 -1,560 Descending Indianapolis Center
02:37PM 40.0147 -80.8297 32° Northeast 371 427 11,500 -1,380 Descending Cleveland Center
02:38PM 40.0983 -80.7567 34° Northeast 359 413 10,100 -780 Descending Cleveland Center
02:39PM 40.1714 -80.6917 34° Northeast 337 388 10,000 -600 Descending Cleveland Center
02:40PM 40.2422 -80.6319 33° Northeast 319 367 9,000 -1,320 Descending Cleveland Center
02:41PM 40.3111 -80.5750 32° Northeast 302 348 7,400 -1,560 Descending Cleveland Center
02:42PM 40.3819 -80.5286 27° Northeast 291 335 5,900 -1,440 Descending Cleveland Center
02:43PM 40.4464 -80.4931 23° Northeast 264 304 4,600 -1,140 Descending Cleveland Center
02:44PM 40.4903 -80.4492 37° Northeast 228 262 3,700 -900 Descending Cleveland Center